Bacolod, Philippines
Current Conditions -  °F | °C
As of 2:00 PM on Monday 22 Dec 2014 (Local Time) from RPVM Reporting Station
Broken Clouds Broken Clouds  
Wind Chill: 86°   Ceiling: 25000
Heat Index: 95°   Visibility: 6mi
Dew Point: 75°   Wind: 10mph
Humidity: 70%   Direction: 20°NNE
Pressure: 29.8"   Gusts: NA
Location:  10.63°N, 122.97°E
Report Text: RPVM 220600Z 02009KT 9999 FEW020 BKN250 30/24 Q1009 RMK A2980
Loading
Personal Weather Stations






























Interactive Weather Map New forecast layout! Learn more

10-Day Weather Forecast

Advertisements
Track Severe Weather on mobile